sensor_id;sensor_type;location;lat;lon;timestamp;pressure;altitude;pressure_sealevel;temperature;humidity
24280;BME280;12395;42.808;23.408;2023-02-13T00:01:51;96625.38;;;-2.13;98.42
24280;BME280;12395;42.808;23.408;2023-02-13T00:04:17;96619.81;;;-2.07;98.64
24280;BME280;12395;42.808;23.408;2023-02-13T00:06:42;96613.72;;;-2.06;98.22
24280;BME280;12395;42.808;23.408;2023-02-13T00:09:08;96606.69;;;-2.04;99.42
24280;BME280;12395;42.808;23.408;2023-02-13T00:11:35;96604.72;;;-2.00;99.99
24280;BME280;12395;42.808;23.408;2023-02-13T00:14:01;96623.66;;;-1.98;100.00
24280;BME280;12395;42.808;23.408;2023-02-13T00:16:26;96612.50;;;-2.00;100.00
24280;BME280;12395;42.808;23.408;2023-02-13T00:18:52;96617.06;;;-2.04;100.00
24280;BME280;12395;42.808;23.408;2023-02-13T00:21:17;96619.13;;;-1.95;100.00
24280;BME280;12395;42.808;23.408;2023-02-13T00:23:42;96599.72;;;-2.03;100.00
24280;BME280;12395;42.808;23.408;2023-02-13T00:26:10;96628.78;;;-1.83;100.00
24280;BME280;12395;42.808;23.408;2023-02-13T00:28:36;96622.75;;;-1.83;100.00
24280;BME280;12395;42.808;23.408;2023-02-13T00:31:21;96602.25;;;-1.88;100.00
24280;BME280;12395;42.808;23.408;2023-02-13T00:33:48;96612.66;;;-1.74;99.58
24280;BME280;12395;42.808;23.408;2023-02-13T00:36:19;96612.84;;;-1.77;99.41
24280;BME280;12395;42.808;23.408;2023-02-13T00:38:45;96623.16;;;-1.61;99.38
24280;BME280;12395;42.808;23.408;2023-02-13T00:41:12;96630.69;;;-1.57;99.15
24280;BME280;12395;42.808;23.408;2023-02-13T00:43:38;96634.09;;;-1.56;98.51
24280;BME280;12395;42.808;23.408;2023-02-13T00:46:04;96628.25;;;-1.60;98.68
24280;BME280;12395;42.808;23.408;2023-02-13T00:48:31;96621.47;;;-1.62;98.79
24280;BME280;12395;42.808;23.408;2023-02-13T00:50:57;96637.72;;;-1.44;98.60
24280;BME280;12395;42.808;23.408;2023-02-13T00:53:24;96628.81;;;-1.54;98.49
24280;BME280;12395;42.808;23.408;2023-02-13T00:55:50;96624.47;;;-1.54;98.60
24280;BME280;12395;42.808;23.408;2023-02-13T00:58:16;96638.84;;;-1.48;98.49
24280;BME280;12395;42.808;23.408;2023-02-13T01:00:42;96619.34;;;-1.56;98.42
24280;BME280;12395;42.808;23.408;2023-02-13T01:03:07;96635.13;;;-1.44;98.53
24280;BME280;12395;42.808;23.408;2023-02-13T01:05:33;96621.78;;;-1.52;98.95
24280;BME280;12395;42.808;23.408;2023-02-13T01:07:59;96629.94;;;-1.44;99.34
24280;BME280;12395;42.808;23.408;2023-02-13T01:10:25;96649.16;;;-1.33;99.06
24280;BME280;12395;42.808;23.408;2023-02-13T01:12:51;96629.38;;;-1.35;98.80
24280;BME280;12395;42.808;23.408;2023-02-13T01:15:16;96630.22;;;-1.35;98.85
24280;BME280;12395;42.808;23.408;2023-02-13T01:17:42;96640.97;;;-1.41;98.89
24280;BME280;12395;42.808;23.408;2023-02-13T01:20:09;96645.16;;;-1.38;98.71
24280;BME280;12395;42.808;23.408;2023-02-13T01:22:35;96630.56;;;-1.41;98.89
24280;BME280;12395;42.808;23.408;2023-02-13T01:25:01;96640.41;;;-1.32;99.04
24280;BME280;12395;42.808;23.408;2023-02-13T01:27:27;96649.16;;;-1.19;98.44
24280;BME280;12395;42.808;23.408;2023-02-13T01:29:53;96636.72;;;-1.28;98.36
24280;BME280;12395;42.808;23.408;2023-02-13T01:32:19;96640.44;;;-1.18;98.34
24280;BME280;12395;42.808;23.408;2023-02-13T01:34:44;96634.03;;;-1.26;98.40
24280;BME280;12395;42.808;23.408;2023-02-13T01:37:10;96640.88;;;-1.25;98.44
24280;BME280;12395;42.808;23.408;2023-02-13T01:39:35;96628.63;;;-1.23;98.68
24280;BME280;12395;42.808;23.408;2023-02-13T01:42:00;96658.06;;;-1.09;98.38
24280;BME280;12395;42.808;23.408;2023-02-13T01:47:12;96661.13;;;-1.02;98.05
24280;BME280;12395;42.808;23.408;2023-02-13T01:49:39;96653.53;;;-1.05;97.90
24280;BME280;12395;42.808;23.408;2023-02-13T01:52:06;96645.72;;;-1.05;98.00
24280;BME280;12395;42.808;23.408;2023-02-13T01:54:33;96640.97;;;-1.13;97.95
24280;BME280;12395;42.808;23.408;2023-02-13T01:57:03;96654.16;;;-1.02;97.88
24280;BME280;12395;42.808;23.408;2023-02-13T01:59:36;96651.44;;;-1.00;97.62
24280;BME280;12395;42.808;23.408;2023-02-13T02:02:02;96652.78;;;-1.07;97.52
24280;BME280;12395;42.808;23.408;2023-02-13T02:04:31;96643.03;;;-1.18;97.86
24280;BME280;12395;42.808;23.408;2023-02-13T02:07:02;96634.56;;;-1.21;98.00
24280;BME280;12395;42.808;23.408;2023-02-13T02:09:33;96654.72;;;-1.11;97.75
24280;BME280;12395;42.808;23.408;2023-02-13T02:12:10;96657.13;;;-1.22;97.94
24280;BME280;12395;42.808;23.408;2023-02-13T02:14:39;96651.19;;;-1.24;98.31
24280;BME280;12395;42.808;23.408;2023-02-13T02:17:05;96658.63;;;-1.18;98.16
24280;BME280;12395;42.808;23.408;2023-02-13T02:19:37;96669.84;;;-1.17;97.68
24280;BME280;12395;42.808;23.408;2023-02-13T02:28:03;96671.06;;;-1.23;98.37
24280;BME280;12395;42.808;23.408;2023-02-13T02:33:44;96662.53;;;-1.25;98.56
24280;BME280;12395;42.808;23.408;2023-02-13T02:39:04;96671.25;;;-1.26;98.21
24280;BME280;12395;42.808;23.408;2023-02-13T02:44:30;96686.84;;;-1.26;98.56
24280;BME280;12395;42.808;23.408;2023-02-13T02:47:09;96672.63;;;-1.34;99.31
24280;BME280;12395;42.808;23.408;2023-02-13T02:52:44;96671.16;;;-1.38;99.47
24280;BME280;12395;42.808;23.408;2023-02-13T02:55:54;96682.69;;;-1.28;99.87
24280;BME280;12395;42.808;23.408;2023-02-13T03:00:49;96674.69;;;-1.39;100.00
24280;BME280;12395;42.808;23.408;2023-02-13T03:03:33;96673.53;;;-1.49;100.00
24280;BME280;12395;42.808;23.408;2023-02-13T03:06:22;96670.69;;;-1.45;100.00
24280;BME280;12395;42.808;23.408;2023-02-13T03:08:56;96670.97;;;-1.35;100.00
24280;BME280;12395;42.808;23.408;2023-02-13T03:11:42;96672.28;;;-1.28;100.00
24280;BME280;12395;42.808;23.408;2023-02-13T03:14:28;96681.19;;;-1.32;100.00
24280;BME280;12395;42.808;23.408;2023-02-13T03:16:55;96674.91;;;-1.28;100.00
24280;BME280;12395;42.808;23.408;2023-02-13T03:23:10;96693.81;;;-1.40;100.00
24280;BME280;12395;42.808;23.408;2023-02-13T03:25:46;96686.09;;;-1.42;100.00
24280;BME280;12395;42.808;23.408;2023-02-13T03:31:20;96678.22;;;-1.40;99.92
24280;BME280;12395;42.808;23.408;2023-02-13T03:34:16;96679.41;;;-1.46;99.12
24280;BME280;12395;42.808;23.408;2023-02-13T03:36:52;96681.66;;;-1.54;99.48
24280;BME280;12395;42.808;23.408;2023-02-13T03:44:59;96683.72;;;-1.75;98.10
24280;BME280;12395;42.808;23.408;2023-02-13T03:47:46;96681.50;;;-2.10;97.75
24280;BME280;12395;42.808;23.408;2023-02-13T03:50:15;96681.00;;;-2.17;98.55
24280;BME280;12395;42.808;23.408;2023-02-13T03:52:52;96697.22;;;-2.13;98.75
24280;BME280;12395;42.808;23.408;2023-02-13T03:55:22;96682.78;;;-2.33;98.95
24280;BME280;12395;42.808;23.408;2023-02-13T03:58:13;96685.38;;;-2.33;100.00
24280;BME280;12395;42.808;23.408;2023-02-13T04:01:00;96687.56;;;-2.41;100.00
24280;BME280;12395;42.808;23.408;2023-02-13T04:03:39;96694.44;;;-2.40;100.00
24280;BME280;12395;42.808;23.408;2023-02-13T04:08:32;96688.25;;;-2.69;100.00
24280;BME280;12395;42.808;23.408;2023-02-13T04:13:58;96696.28;;;-2.73;100.00
24280;BME280;12395;42.808;23.408;2023-02-13T04:18:54;96691.59;;;-2.82;100.00
24280;BME280;12395;42.808;23.408;2023-02-13T04:21:20;96696.28;;;-2.89;100.00
24280;BME280;12395;42.808;23.408;2023-02-13T04:23:45;96686.91;;;-2.91;100.00
24280;BME280;12395;42.808;23.408;2023-02-13T04:26:18;96692.72;;;-3.03;100.00
24280;BME280;12395;42.808;23.408;2023-02-13T04:28:45;96688.47;;;-3.04;100.00
24280;BME280;12395;42.808;23.408;2023-02-13T04:31:10;96684.00;;;-3.18;100.00
24280;BME280;12395;42.808;23.408;2023-02-13T04:33:36;96686.84;;;-3.23;100.00
24280;BME280;12395;42.808;23.408;2023-02-13T04:36:01;96675.06;;;-3.28;100.00
24280;BME280;12395;42.808;23.408;2023-02-13T04:38:27;96679.81;;;-3.21;100.00
24280;BME280;12395;42.808;23.408;2023-02-13T04:40:52;96678.13;;;-3.37;100.00
24280;BME280;12395;42.808;23.408;2023-02-13T04:43:18;96686.75;;;-3.37;100.00
24280;BME280;12395;42.808;23.408;2023-02-13T04:45:47;96691.50;;;-3.29;100.00
24280;BME280;12395;42.808;23.408;2023-02-13T04:48:12;96689.34;;;-3.37;100.00
24280;BME280;12395;42.808;23.408;2023-02-13T04:50:38;96688.41;;;-3.36;100.00
24280;BME280;12395;42.808;23.408;2023-02-13T04:53:03;96692.91;;;-3.39;100.00
24280;BME280;12395;42.808;23.408;2023-02-13T04:55:29;96677.84;;;-3.48;100.00
24280;BME280;12395;42.808;23.408;2023-02-13T04:57:55;96699.69;;;-3.37;100.00
24280;BME280;12395;42.808;23.408;2023-02-13T05:00:22;96700.34;;;-3.49;100.00
24280;BME280;12395;42.808;23.408;2023-02-13T05:02:48;96701.88;;;-3.62;100.00
24280;BME280;12395;42.808;23.408;2023-02-13T05:05:15;96695.41;;;-3.70;100.00
24280;BME280;12395;42.808;23.408;2023-02-13T05:07:41;96695.09;;;-3.64;100.00
24280;BME280;12395;42.808;23.408;2023-02-13T05:10:08;96689.06;;;-3.65;100.00
24280;BME280;12395;42.808;23.408;2023-02-13T05:12:33;96690.38;;;-3.73;100.00
24280;BME280;12395;42.808;23.408;2023-02-13T05:14:59;96699.84;;;-3.72;100.00
24280;BME280;12395;42.808;23.408;2023-02-13T05:17:24;96697.16;;;-3.71;100.00
24280;BME280;12395;42.808;23.408;2023-02-13T05:19:50;96703.25;;;-3.72;100.00
24280;BME280;12395;42.808;23.408;2023-02-13T05:22:15;96711.00;;;-3.72;100.00
24280;BME280;12395;42.808;23.408;2023-02-13T05:24:59;96713.53;;;-3.70;100.00
24280;BME280;12395;42.808;23.408;2023-02-13T05:27:24;96709.97;;;-3.68;100.00
24280;BME280;12395;42.808;23.408;2023-02-13T05:29:50;96707.88;;;-3.61;100.00
24280;BME280;12395;42.808;23.408;2023-02-13T05:32:15;96718.00;;;-3.57;100.00
24280;BME280;12395;42.808;23.408;2023-02-13T05:34:40;96715.44;;;-3.74;100.00
24280;BME280;12395;42.808;23.408;2023-02-13T05:37:06;96724.28;;;-3.78;100.00
24280;BME280;12395;42.808;23.408;2023-02-13T05:39:31;96713.25;;;-3.81;100.00
24280;BME280;12395;42.808;23.408;2023-02-13T05:41:56;96712.09;;;-3.76;100.00
24280;BME280;12395;42.808;23.408;2023-02-13T05:44:22;96725.34;;;-3.82;100.00
24280;BME280;12395;42.808;23.408;2023-02-13T05:46:47;96736.16;;;-3.74;100.00
24280;BME280;12395;42.808;23.408;2023-02-13T05:49:14;96744.41;;;-3.66;100.00
24280;BME280;12395;42.808;23.408;2023-02-13T05:51:41;96723.94;;;-3.72;100.00
24280;BME280;12395;42.808;23.408;2023-02-13T05:54:07;96721.31;;;-3.70;100.00
24280;BME280;12395;42.808;23.408;2023-02-13T05:56:32;96734.84;;;-3.65;100.00
24280;BME280;12395;42.808;23.408;2023-02-13T05:58:58;96721.53;;;-3.75;100.00
24280;BME280;12395;42.808;23.408;2023-02-13T06:01:23;96749.50;;;-3.64;100.00
24280;BME280;12395;42.808;23.408;2023-02-13T06:03:49;96747.25;;;-3.55;100.00
24280;BME280;12395;42.808;23.408;2023-02-13T06:06:15;96737.38;;;-3.47;100.00
24280;BME280;12395;42.808;23.408;2023-02-13T06:08:41;96748.78;;;-3.34;100.00
24280;BME280;12395;42.808;23.408;2023-02-13T06:11:07;96745.88;;;-3.28;100.00
24280;BME280;12395;42.808;23.408;2023-02-13T06:13:32;96751.09;;;-3.12;100.00
24280;BME280;12395;42.808;23.408;2023-02-13T06:15:58;96743.69;;;-3.02;100.00
24280;BME280;12395;42.808;23.408;2023-02-13T06:18:23;96751.78;;;-2.93;100.00
24280;BME280;12395;42.808;23.408;2023-02-13T06:20:48;96745.47;;;-2.87;100.00
24280;BME280;12395;42.808;23.408;2023-02-13T06:23:14;96751.34;;;-2.68;100.00
24280;BME280;12395;42.808;23.408;2023-02-13T06:25:40;96759.63;;;-2.62;100.00
24280;BME280;12395;42.808;23.408;2023-02-13T06:28:05;96747.50;;;-2.61;100.00
24280;BME280;12395;42.808;23.408;2023-02-13T06:30:31;96762.75;;;-2.40;100.00
24280;BME280;12395;42.808;23.408;2023-02-13T06:32:57;96756.72;;;-2.40;100.00
24280;BME280;12395;42.808;23.408;2023-02-13T06:35:23;96778.50;;;-2.27;100.00
24280;BME280;12395;42.808;23.408;2023-02-13T06:37:49;96749.19;;;-2.29;100.00
24280;BME280;12395;42.808;23.408;2023-02-13T06:40:15;96767.66;;;-2.04;100.00
24280;BME280;12395;42.808;23.408;2023-02-13T06:42:42;96774.59;;;-1.89;100.00
24280;BME280;12395;42.808;23.408;2023-02-13T06:45:08;96763.72;;;-1.80;100.00
24280;BME280;12395;42.808;23.408;2023-02-13T06:47:34;96760.00;;;-1.76;100.00
24280;BME280;12395;42.808;23.408;2023-02-13T06:49:59;96755.47;;;-1.72;100.00
24280;BME280;12395;42.808;23.408;2023-02-13T06:52:25;96763.97;;;-1.54;100.00
24280;BME280;12395;42.808;23.408;2023-02-13T06:54:51;96764.34;;;-1.46;100.00
24280;BME280;12395;42.808;23.408;2023-02-13T06:57:17;96778.69;;;-1.25;100.00
24280;BME280;12395;42.808;23.408;2023-02-13T06:59:42;96770.00;;;-1.10;100.00
24280;BME280;12395;42.808;23.408;2023-02-13T07:02:10;96763.88;;;-0.95;100.00
24280;BME280;12395;42.808;23.408;2023-02-13T07:04:35;96766.13;;;-0.75;100.00
24280;BME280;12395;42.808;23.408;2023-02-13T07:07:01;96766.84;;;-0.59;100.00
24280;BME280;12395;42.808;23.408;2023-02-13T07:09:26;96781.34;;;-0.41;100.00
24280;BME280;12395;42.808;23.408;2023-02-13T07:11:52;96768.00;;;-0.36;100.00
24280;BME280;12395;42.808;23.408;2023-02-13T07:14:17;96775.06;;;-0.24;100.00
24280;BME280;12395;42.808;23.408;2023-02-13T07:16:42;96783.59;;;-0.08;100.00
24280;BME280;12395;42.808;23.408;2023-02-13T07:19:08;96782.00;;;0.04;99.99
24280;BME280;12395;42.808;23.408;2023-02-13T07:21:33;96783.34;;;0.09;99.77
24280;BME280;12395;42.808;23.408;2023-02-13T07:23:58;96759.28;;;0.06;99.24
24280;BME280;12395;42.808;23.408;2023-02-13T07:26:25;96773.53;;;0.27;99.14
24280;BME280;12395;42.808;23.408;2023-02-13T07:28:51;96774.69;;;0.35;99.00
24280;BME280;12395;42.808;23.408;2023-02-13T07:31:16;96776.59;;;0.46;98.98
24280;BME280;12395;42.808;23.408;2023-02-13T07:33:42;96765.97;;;0.36;98.07
24280;BME280;12395;42.808;23.408;2023-02-13T07:36:07;96786.81;;;0.36;98.09
24280;BME280;12395;42.808;23.408;2023-02-13T07:38:33;96782.72;;;0.32;98.01
24280;BME280;12395;42.808;23.408;2023-02-13T07:41:02;96782.72;;;0.32;98.70
24280;BME280;12395;42.808;23.408;2023-02-13T07:43:28;96770.63;;;0.31;99.32
24280;BME280;12395;42.808;23.408;2023-02-13T07:45:55;96764.13;;;0.24;99.95
24280;BME280;12395;42.808;23.408;2023-02-13T07:48:22;96785.47;;;0.43;99.97
24280;BME280;12395;42.808;23.408;2023-02-13T07:50:48;96779.22;;;0.46;100.00
24280;BME280;12395;42.808;23.408;2023-02-13T07:53:14;96773.25;;;0.44;99.76
24280;BME280;12395;42.808;23.408;2023-02-13T07:55:39;96777.63;;;0.43;99.81
24280;BME280;12395;42.808;23.408;2023-02-13T07:58:05;96780.78;;;0.48;100.00
24280;BME280;12395;42.808;23.408;2023-02-13T08:00:30;96778.91;;;0.50;100.00
24280;BME280;12395;42.808;23.408;2023-02-13T08:02:59;96776.84;;;0.55;100.00
24280;BME280;12395;42.808;23.408;2023-02-13T08:05:24;96775.59;;;0.61;100.00
24280;BME280;12395;42.808;23.408;2023-02-13T08:07:51;96771.13;;;0.63;99.88
24280;BME280;12395;42.808;23.408;2023-02-13T08:10:16;96774.47;;;0.65;100.00
24280;BME280;12395;42.808;23.408;2023-02-13T08:13:00;96764.66;;;0.68;99.18
24280;BME280;12395;42.808;23.408;2023-02-13T08:15:26;96767.91;;;0.72;99.58
24280;BME280;12395;42.808;23.408;2023-02-13T08:17:51;96768.97;;;0.82;99.34
24280;BME280;12395;42.808;23.408;2023-02-13T08:20:17;96773.25;;;0.96;99.00
24280;BME280;12395;42.808;23.408;2023-02-13T08:22:42;96765.50;;;0.94;97.86
24280;BME280;12395;42.808;23.408;2023-02-13T08:25:08;96756.56;;;0.98;97.56
24280;BME280;12395;42.808;23.408;2023-02-13T08:27:33;96770.13;;;1.03;96.90
24280;BME280;12395;42.808;23.408;2023-02-13T08:29:59;96764.09;;;1.15;97.34
24280;BME280;12395;42.808;23.408;2023-02-13T08:32:25;96771.38;;;1.35;96.37
24280;BME280;12395;42.808;23.408;2023-02-13T08:34:51;96774.50;;;1.40;95.58
24280;BME280;12395;42.808;23.408;2023-02-13T08:37:17;96774.06;;;1.46;95.20
24280;BME280;12395;42.808;23.408;2023-02-13T08:39:43;96774.38;;;1.54;95.07
24280;BME280;12395;42.808;23.408;2023-02-13T08:42:08;96775.50;;;1.63;94.97
24280;BME280;12395;42.808;23.408;2023-02-13T08:44:33;96779.50;;;1.69;92.95
24280;BME280;12395;42.808;23.408;2023-02-13T08:46:59;96773.94;;;1.73;91.79
24280;BME280;12395;42.808;23.408;2023-02-13T08:49:30;96762.41;;;1.76;91.19
24280;BME280;12395;42.808;23.408;2023-02-13T08:51:56;96778.69;;;1.92;90.92
24280;BME280;12395;42.808;23.408;2023-02-13T08:54:21;96768.44;;;1.89;89.48
24280;BME280;12395;42.808;23.408;2023-02-13T08:56:46;96780.88;;;1.98;89.13
24280;BME280;12395;42.808;23.408;2023-02-13T08:59:15;96775.19;;;2.04;89.49
24280;BME280;12395;42.808;23.408;2023-02-13T09:01:40;96766.25;;;2.19;87.82
24280;BME280;12395;42.808;23.408;2023-02-13T09:04:06;96771.75;;;2.27;87.60
24280;BME280;12395;42.808;23.408;2023-02-13T09:06:31;96761.69;;;2.33;87.04
24280;BME280;12395;42.808;23.408;2023-02-13T09:08:57;96769.66;;;2.56;86.56
24280;BME280;12395;42.808;23.408;2023-02-13T09:11:22;96764.72;;;2.75;85.90
24280;BME280;12395;42.808;23.408;2023-02-13T09:13:49;96787.00;;;2.91;85.00
24280;BME280;12395;42.808;23.408;2023-02-13T09:16:16;96768.94;;;2.88;84.70
24280;BME280;12395;42.808;23.408;2023-02-13T09:18:42;96780.50;;;3.08;85.03
24280;BME280;12395;42.808;23.408;2023-02-13T09:21:10;96780.56;;;3.30;84.46
24280;BME280;12395;42.808;23.408;2023-02-13T09:23:37;96781.50;;;3.51;83.57
24280;BME280;12395;42.808;23.408;2023-02-13T09:26:06;96785.94;;;3.62;81.79
24280;BME280;12395;42.808;23.408;2023-02-13T09:28:33;96788.69;;;3.71;81.62
24280;BME280;12395;42.808;23.408;2023-02-13T09:30:59;96781.53;;;3.73;80.62
24280;BME280;12395;42.808;23.408;2023-02-13T09:33:28;96786.41;;;3.89;80.26
24280;BME280;12395;42.808;23.408;2023-02-13T09:35:54;96768.28;;;4.08;80.01
24280;BME280;12395;42.808;23.408;2023-02-13T09:38:19;96774.06;;;4.23;78.79
24280;BME280;12395;42.808;23.408;2023-02-13T09:40:51;96766.88;;;4.36;77.71
24280;BME280;12395;42.808;23.408;2023-02-13T09:43:29;96765.47;;;4.32;76.47
24280;BME280;12395;42.808;23.408;2023-02-13T09:45:57;96767.44;;;4.08;76.33
24280;BME280;12395;42.808;23.408;2023-02-13T09:48:33;96755.19;;;3.75;78.43
24280;BME280;12395;42.808;23.408;2023-02-13T09:50:59;96759.34;;;3.55;78.51
24280;BME280;12395;42.808;23.408;2023-02-13T09:53:27;96753.06;;;3.58;79.60
24280;BME280;12395;42.808;23.408;2023-02-13T09:58:40;96734.91;;;3.99;78.56
24280;BME280;12395;42.808;23.408;2023-02-13T10:01:28;96747.28;;;4.08;78.10
24280;BME280;12395;42.808;23.408;2023-02-13T10:04:28;96750.38;;;4.02;77.39
24280;BME280;12395;42.808;23.408;2023-02-13T10:07:23;96742.41;;;3.92;78.31
24280;BME280;12395;42.808;23.408;2023-02-13T10:18:32;96713.63;;;3.59;80.91
24280;BME280;12395;42.808;23.408;2023-02-13T10:20:53;96706.09;;;3.66;80.32
24280;BME280;12395;42.808;23.408;2023-02-13T10:23:40;96712.66;;;3.71;80.42
24280;BME280;12395;42.808;23.408;2023-02-13T10:26:23;96700.84;;;3.77;80.75
24280;BME280;12395;42.808;23.408;2023-02-13T10:29:15;96702.19;;;3.71;79.89
24280;BME280;12395;42.808;23.408;2023-02-13T10:32:03;96710.88;;;3.72;79.36
24280;BME280;12395;42.808;23.408;2023-02-13T10:34:36;96699.28;;;3.74;78.61
24280;BME280;12395;42.808;23.408;2023-02-13T10:37:11;96698.00;;;3.80;79.12
24280;BME280;12395;42.808;23.408;2023-02-13T10:39:40;96690.38;;;3.77;80.28
24280;BME280;12395;42.808;23.408;2023-02-13T10:42:31;96689.53;;;3.76;79.94
24280;BME280;12395;42.808;23.408;2023-02-13T10:45:24;96688.00;;;3.74;78.80
24280;BME280;12395;42.808;23.408;2023-02-13T10:50:57;96666.56;;;3.69;79.90
24280;BME280;12395;42.808;23.408;2023-02-13T10:53:46;96672.28;;;3.74;79.89
24280;BME280;12395;42.808;23.408;2023-02-13T11:02:00;96653.94;;;4.06;78.83
24280;BME280;12395;42.808;23.408;2023-02-13T11:04:27;96645.81;;;4.09;79.65
24280;BME280;12395;42.808;23.408;2023-02-13T11:06:59;96642.19;;;4.21;78.74
24280;BME280;12395;42.808;23.408;2023-02-13T11:09:25;96654.44;;;4.31;78.23
24280;BME280;12395;42.808;23.408;2023-02-13T11:11:51;96640.63;;;4.29;78.02
24280;BME280;12395;42.808;23.408;2023-02-13T11:14:25;96647.91;;;4.46;77.59
24280;BME280;12395;42.808;23.408;2023-02-13T11:17:02;96626.31;;;4.43;76.43
24280;BME280;12395;42.808;23.408;2023-02-13T11:19:36;96637.84;;;4.51;75.64
24280;BME280;12395;42.808;23.408;2023-02-13T11:22:07;96621.69;;;4.46;75.42
24280;BME280;12395;42.808;23.408;2023-02-13T11:24:33;96633.06;;;4.56;75.91
24280;BME280;12395;42.808;23.408;2023-02-13T11:27:02;96612.31;;;4.53;75.21
24280;BME280;12395;42.808;23.408;2023-02-13T11:29:34;96618.72;;;4.60;75.19
24280;BME280;12395;42.808;23.408;2023-02-13T11:32:04;96605.06;;;4.66;75.63
24280;BME280;12395;42.808;23.408;2023-02-13T11:34:31;96580.94;;;4.73;75.76
24280;BME280;12395;42.808;23.408;2023-02-13T11:39:39;96589.31;;;4.97;74.02
24280;BME280;12395;42.808;23.408;2023-02-13T11:44:40;96586.22;;;5.22;73.04
24280;BME280;12395;42.808;23.408;2023-02-13T11:47:06;96576.16;;;5.17;71.63
24280;BME280;12395;42.808;23.408;2023-02-13T11:49:34;96565.81;;;5.25;73.51
24280;BME280;12395;42.808;23.408;2023-02-13T11:52:06;96562.47;;;5.33;70.98
24280;BME280;12395;42.808;23.408;2023-02-13T11:54:41;96549.22;;;5.44;70.66
24280;BME280;12395;42.808;23.408;2023-02-13T11:57:28;96562.13;;;5.57;70.05
24280;BME280;12395;42.808;23.408;2023-02-13T11:59:54;96566.72;;;5.74;69.31
24280;BME280;12395;42.808;23.408;2023-02-13T12:02:20;96558.41;;;5.78;67.58
24280;BME280;12395;42.808;23.408;2023-02-13T12:04:49;96558.25;;;5.80;66.62
24280;BME280;12395;42.808;23.408;2023-02-13T12:07:30;96555.38;;;5.92;68.67
24280;BME280;12395;42.808;23.408;2023-02-13T12:10:04;96539.91;;;5.89;65.12
24280;BME280;12395;42.808;23.408;2023-02-13T12:12:37;96540.56;;;6.01;65.29
24280;BME280;12395;42.808;23.408;2023-02-13T12:15:17;96542.25;;;6.11;63.88
24280;BME280;12395;42.808;23.408;2023-02-13T12:17:46;96542.53;;;6.08;62.94
24280;BME280;12395;42.808;23.408;2023-02-13T12:20:15;96519.69;;;6.09;62.72
24280;BME280;12395;42.808;23.408;2023-02-13T12:23:22;96542.66;;;6.16;61.66
24280;BME280;12395;42.808;23.408;2023-02-13T12:28:34;96513.00;;;6.14;61.61
24280;BME280;12395;42.808;23.408;2023-02-13T12:41:42;96507.38;;;6.56;59.45
24280;BME280;12395;42.808;23.408;2023-02-13T12:54:58;96489.97;;;6.82;58.82
24280;BME280;12395;42.808;23.408;2023-02-13T13:05:50;96478.25;;;6.94;56.58
24280;BME280;12395;42.808;23.408;2023-02-13T13:11:28;96462.59;;;7.10;56.33
24280;BME280;12395;42.808;23.408;2023-02-13T13:14:19;96454.84;;;7.09;53.94
24280;BME280;12395;42.808;23.408;2023-02-13T13:16:55;96455.94;;;7.16;54.13
24280;BME280;12395;42.808;23.408;2023-02-13T13:26:47;96450.69;;;7.06;54.13
24280;BME280;12395;42.808;23.408;2023-02-13T13:29:48;96458.84;;;7.13;52.96
24280;BME280;12395;42.808;23.408;2023-02-13T13:32:18;96445.44;;;7.06;54.26
24280;BME280;12395;42.808;23.408;2023-02-13T13:34:45;96452.75;;;7.12;52.65
24280;BME280;12395;42.808;23.408;2023-02-13T13:37:13;96457.56;;;6.99;52.58
24280;BME280;12395;42.808;23.408;2023-02-13T13:42:21;96443.00;;;6.95;51.97
24280;BME280;12395;42.808;23.408;2023-02-13T13:45:31;96446.34;;;6.97;52.13
24280;BME280;12395;42.808;23.408;2023-02-13T13:50:26;96438.97;;;7.00;53.48
24280;BME280;12395;42.808;23.408;2023-02-13T13:53:20;96441.50;;;6.92;51.74
24280;BME280;12395;42.808;23.408;2023-02-13T14:03:40;96432.09;;;6.90;52.54
24280;BME280;12395;42.808;23.408;2023-02-13T14:06:09;96440.69;;;6.92;52.41
24280;BME280;12395;42.808;23.408;2023-02-13T14:11:04;96438.50;;;6.78;53.05
24280;BME280;12395;42.808;23.408;2023-02-13T14:13:36;96426.75;;;6.82;53.67
24280;BME280;12395;42.808;23.408;2023-02-13T14:16:04;96425.06;;;6.81;54.15
24280;BME280;12395;42.808;23.408;2023-02-13T14:18:30;96420.06;;;6.78;54.23
24280;BME280;12395;42.808;23.408;2023-02-13T14:21:00;96417.00;;;6.82;54.10
24280;BME280;12395;42.808;23.408;2023-02-13T14:29:29;96411.16;;;6.61;54.64
24280;BME280;12395;42.808;23.408;2023-02-13T14:34:00;96418.13;;;6.53;53.75
24280;BME280;12395;42.808;23.408;2023-02-13T14:36:28;96421.06;;;6.50;53.67
24280;BME280;12395;42.808;23.408;2023-02-13T14:39:00;96409.19;;;6.46;54.13
24280;BME280;12395;42.808;23.408;2023-02-13T14:46:45;96411.41;;;6.41;53.96
24280;BME280;12395;42.808;23.408;2023-02-13T14:49:24;96409.59;;;6.41;54.38
24280;BME280;12395;42.808;23.408;2023-02-13T14:51:52;96422.03;;;6.49;54.63
24280;BME280;12395;42.808;23.408;2023-02-13T14:54:28;96413.94;;;6.33;54.56
24280;BME280;12395;42.808;23.408;2023-02-13T14:57:10;96408.00;;;6.31;56.03
24280;BME280;12395;42.808;23.408;2023-02-13T14:59:43;96413.53;;;6.28;55.58
24280;BME280;12395;42.808;23.408;2023-02-13T15:02:20;96403.28;;;6.24;55.94
24280;BME280;12395;42.808;23.408;2023-02-13T15:04:53;96405.91;;;6.24;56.49
24280;BME280;12395;42.808;23.408;2023-02-13T15:07:26;96415.47;;;6.26;56.80
24280;BME280;12395;42.808;23.408;2023-02-13T15:10:23;96413.28;;;6.21;56.75
24280;BME280;12395;42.808;23.408;2023-02-13T15:12:57;96408.06;;;6.11;55.44
24280;BME280;12395;42.808;23.408;2023-02-13T15:15:28;96409.84;;;6.11;56.30
24280;BME280;12395;42.808;23.408;2023-02-13T15:17:59;96409.16;;;6.09;56.07
24280;BME280;12395;42.808;23.408;2023-02-13T15:20:29;96413.34;;;6.02;56.24
24280;BME280;12395;42.808;23.408;2023-02-13T15:22:57;96390.25;;;5.86;56.23
24280;BME280;12395;42.808;23.408;2023-02-13T15:28:03;96403.41;;;5.77;57.89
24280;BME280;12395;42.808;23.408;2023-02-13T15:30:34;96413.78;;;5.69;57.81